Time;durP1;ratioP1;P1;durP2;ratioP2;P2;SDS_P1;SDS_P2;PMS_P1;PMS_P2;Temp;Humidity;BMP_temperature;BMP_pressure;BME280_temperature;BME280_humidity;BME280_pressure;Samples;Min_cycle;Max_cycle;Signal;HPM_P1;HPM_P2
2023/03/08 00:00:47;;;;;;;;;;;;;;;;;;4983849;28;19909;-84
2023/03/08 00:03:13;;;;;;;;;;;;;;;;;;5001809;28;19965;-84
2023/03/08 00:05:38;;;;;;;;;;;;;;;;;;4984804;28;19910;-85
2023/03/08 00:08:03;;;;;;;;;;;;;;;;;;4987175;28;19914;-85
2023/03/08 00:10:29;;;;;;;;;;;;;;;;;;4985135;28;20374;-84
2023/03/08 00:12:54;;;;;;;;;;;;;;;;;;4984306;28;19989;-85
2023/03/08 00:15:19;;;;;;;;;;;;;;;;;;4981068;28;19910;-85
2023/03/08 00:17:44;;;;;;;;;;;;;;;;;;4982111;28;19921;-85
2023/03/08 00:20:10;;;;;;;;;;;;;;;;;;4982062;28;19921;-84
2023/03/08 00:22:35;;;;;;;;;;;;;;;;;;4982488;28;19910;-84
2023/03/08 00:25:01;;;;;;;;;;;;;;;;;;4983720;28;19953;-85
2023/03/08 00:27:26;;;;;;;;;;;;;;;;;;4997291;28;19910;-85
2023/03/08 00:29:51;;;;;;;;;;;;;;;;;;4984330;28;19921;-86
2023/03/08 00:32:16;;;;;;;;;;;;;;;;;;4984915;28;19910;-85
2023/03/08 00:34:45;;;;;;;;;;;;;;;;;;4984935;28;19917;-84
2023/03/08 00:37:10;;;;;;;;;;;;;;;;;;4984393;28;19916;-84
2023/03/08 00:39:35;;;;;;;;;;;;;;;;;;4985284;28;19957;-84
2023/03/08 00:42:00;;;;;;;;;;;;;;;;;;4982902;28;19936;-83
2023/03/08 00:44:25;;;;;;;;;;;;;;;;;;4984175;28;19910;-84
2023/03/08 00:46:51;;;;;;;;;;;;;;;;;;4981572;28;19930;-82
2023/03/08 00:49:16;;;;;;;;;;;;;;;;;;4998299;28;19910;-84
2023/03/08 00:51:41;;;;;;;;;;;;;;;;;;4983718;28;19914;-85
2023/03/08 00:54:06;;;;;;;;;;;;;;;;;;4983597;28;19917;-85
2023/03/08 00:56:31;;;;;;;;;;;;;;;;;;4982492;28;19957;-85
2023/03/08 00:58:56;;;;;;;;;;;;;;;;;;4983609;28;20275;-84
2023/03/08 01:01:22;;;;;;;;;;;;;;;;;;4982378;28;19910;-84
2023/03/08 01:03:47;;;;;;;;;;;;;;;;;;4979323;28;19917;-84
2023/03/08 01:06:13;;;;;;;;;;;;;;;;;;4979165;28;19953;-84
2023/03/08 01:08:40;;;;;;;;;;;;;;;;;;4980496;28;19913;-84
2023/03/08 01:11:06;;;;;;;;;;;;;;;;;;4980802;28;19910;-85
2023/03/08 01:13:32;;;;;;;;;;;;;;;;;;4982288;28;19920;-86
2023/03/08 01:15:59;;;;;;;;;;;;;;;;;;4979726;28;19929;-84
2023/03/08 01:18:24;;;;;;;;;;;;;;;;;;4981444;28;19914;-85
2023/03/08 01:20:56;;;;;;;;;;;;;;;;;;4980429;28;20000;-86
2023/03/08 01:23:21;;;;;;;;;;;;;;;;;;4994137;28;20471;-85
2023/03/08 01:25:47;;;;;;;;;;;;;;;;;;4995049;28;19960;-85
2023/03/08 01:28:12;;;;;;;;;;;;;;;;;;4981881;28;20318;-86
2023/03/08 01:30:37;;;;;;;;;;;;;;;;;;4980863;28;19910;-86
2023/03/08 01:33:02;;;;;;;;;;;;;;;;;;4996614;28;20000;-86
2023/03/08 01:35:27;;;;;;;;;;;;;;;;;;4982447;28;19910;-84
2023/03/08 01:37:52;;;;;;;;;;;;;;;;;;4981185;28;19936;-84
2023/03/08 01:40:18;;;;;;;;;;;;;;;;;;4978906;28;19953;-85
2023/03/08 01:42:43;;;;;;;;;;;;;;;;;;4979002;28;19925;-85
2023/03/08 01:45:26;;;;;;;;;;;;;;;;;;4980023;28;19963;-85
2023/03/08 01:47:52;;;;;;;;;;;;;;;;;;4979899;28;19921;-84
2023/03/08 01:50:17;;;;;;;;;;;;;;;;;;4979097;28;19910;-85
2023/03/08 01:52:45;;;;;;;;;;;;;;;;;;4994614;28;20032;-84
2023/03/08 01:55:11;;;;;;;;;;;;;;;;;;4978364;28;20434;-84
2023/03/08 01:57:44;;;;;;;;;;;;;;;;;;4978442;28;19941;-85
2023/03/08 02:00:14;;;;;;;;;;;;;;;;;;4980360;28;20460;-84
2023/03/08 02:02:42;;;;;;;;;;;;;;;;;;4979869;28;19917;-84
2023/03/08 02:05:08;;;;;;;;;;;;;;;;;;4979766;28;19910;-84
2023/03/08 02:07:33;;;;;;;;;;;;;;;;;;4983554;28;19910;-84
2023/03/08 02:09:58;;;;;;;;;;;;;;;;;;4982645;28;19917;-84
2023/03/08 02:12:24;;;;;;;;;;;;;;;;;;4980380;28;20362;-84
2023/03/08 02:14:49;;;;;;;;;;;;;;;;;;4988067;28;19917;-83
2023/03/08 02:17:15;;;;;;;;;;;;;;;;;;5009876;28;19933;-83
2023/03/08 02:20:00;;;;;;;;;;;;;;;;;;4993530;28;19914;-82
2023/03/08 02:22:26;;;;;;;;;;;;;;;;;;4994385;28;19910;-83
2023/03/08 02:24:51;;;;;;;;;;;;;;;;;;4986862;28;20411;-85
2023/03/08 02:27:18;;;;;;;;;;;;;;;;;;4977402;28;20382;-84
2023/03/08 02:29:43;;;;;;;;;;;;;;;;;;4976833;28;19910;-84
2023/03/08 02:32:09;;;;;;;;;;;;;;;;;;4975273;28;19917;-85
2023/03/08 02:34:34;;;;;;;;;;;;;;;;;;4976823;28;19996;-84
2023/03/08 02:36:59;;;;;;;;;;;;;;;;;;4976525;28;19918;-85
2023/03/08 02:39:25;;;;;;;;;;;;;;;;;;4975473;28;19914;-84
2023/03/08 02:41:50;;;;;;;;;;;;;;;;;;4976744;28;19910;-84
2023/03/08 02:44:15;;;;;;;;;;;;;;;;;;4977462;28;19937;-84
2023/03/08 02:46:40;;;;;;;;;;;;;;;;;;4977510;28;20005;-84
2023/03/08 02:49:05;;;;;;;;;;;;;;;;;;4978137;28;19910;-84
2023/03/08 02:51:30;;;;;;;;;;;;;;;;;;4979256;28;20087;-85
2023/03/08 02:53:56;;;;;;;;;;;;;;;;;;4975472;28;19917;-84
2023/03/08 02:56:21;;;;;;;;;;;;;;;;;;4978873;28;20388;-84
2023/03/08 02:58:46;;;;;;;;;;;;;;;;;;4980966;28;19914;-84
2023/03/08 03:01:12;;;;;;;;;;;;;;;;;;4979737;28;20388;-84
2023/03/08 03:03:37;;;;;;;;;;;;;;;;;;4980947;28;20000;-84
2023/03/08 03:06:02;;;;;;;;;;;;;;;;;;4981287;28;20290;-84
2023/03/08 03:08:28;;;;;;;;;;;;;;;;;;4983408;28;20293;-85
2023/03/08 03:10:54;;;;;;;;;;;;;;;;;;4979969;28;19910;-83
2023/03/08 03:13:19;;;;;;;;;;;;;;;;;;4980112;28;20004;-85
2023/03/08 03:15:44;;;;;;;;;;;;;;;;;;4981851;28;20389;-85
2023/03/08 03:18:09;;;;;;;;;;;;;;;;;;4982163;28;19949;-85
2023/03/08 03:20:35;;;;;;;;;;;;;;;;;;4996987;28;19957;-85
2023/03/08 03:23:00;;;;;;;;;;;;;;;;;;4981126;28;19910;-84
2023/03/08 03:25:25;;;;;;;;;;;;;;;;;;4981485;28;19958;-84
2023/03/08 03:27:52;;;;;;;;;;;;;;;;;;4982315;28;19910;-84
2023/03/08 03:30:17;;;;;;;;;;;;;;;;;;4982641;28;20296;-83
2023/03/08 03:32:43;;;;;;;;;;;;;;;;;;4980732;28;19910;-84
2023/03/08 03:35:08;;;;;;;;;;;;;;;;;;4981870;28;20369;-84
2023/03/08 03:37:34;;;;;;;;;;;;;;;;;;4980681;28;19917;-83
2023/03/08 03:39:59;;;;;;;;;;;;;;;;;;4980019;28;19921;-84
2023/03/08 03:42:24;;;;;;;;;;;;;;;;;;4996555;28;19953;-85
2023/03/08 03:44:49;;;;;;;;;;;;;;;;;;4981915;28;19936;-85
2023/03/08 03:47:15;;;;;;;;;;;;;;;;;;4979665;28;19910;-82
2023/03/08 03:49:40;;;;;;;;;;;;;;;;;;4980806;28;20447;-83
2023/03/08 03:52:05;;;;;;;;;;;;;;;;;;4980305;28;19926;-83
2023/03/08 03:54:30;;;;;;;;;;;;;;;;;;4980281;28;20104;-83
2023/03/08 03:56:57;;;;;;;;;;;;;;;;;;4980390;28;19917;-84
2023/03/08 03:59:22;;;;;;;;;;;;;;;;;;4981377;28;19921;-83
2023/03/08 04:01:47;;;;;;;;;;;;;;;;;;4981462;28;19910;-84
2023/03/08 04:04:12;;;;;;;;;;;;;;;;;;4980910;28;20281;-84
2023/03/08 04:06:38;;;;;;;;;;;;;;;;;;4979867;28;19945;-83
2023/03/08 04:09:04;;;;;;;;;;;;;;;;;;4979692;28;20341;-82
2023/03/08 04:11:34;;;;;;;;;;;;;;;;;;4978943;28;19976;-84
2023/03/08 04:13:59;;;;;;;;;;;;;;;;;;4980606;28;19909;-83
2023/03/08 04:16:26;;;;;;;;;;;;;;;;;;4979627;28;19925;-84
2023/03/08 04:18:52;;;;;;;;;;;;;;;;;;4980287;28;19945;-84
2023/03/08 04:21:17;;;;;;;;;;;;;;;;;;4979427;28;20336;-84
2023/03/08 04:23:42;;;;;;;;;;;;;;;;;;4981022;28;19910;-85
2023/03/08 04:26:08;;;;;;;;;;;;;;;;;;4981349;28;20005;-85
2023/03/08 04:28:33;;;;;;;;;;;;;;;;;;4980463;28;19910;-84
2023/03/08 04:30:59;;;;;;;;;;;;;;;;;;4980882;28;19910;-84
2023/03/08 04:33:24;;;;;;;;;;;;;;;;;;4981040;28;20408;-85
2023/03/08 04:35:49;;;;;;;;;;;;;;;;;;4978448;28;20385;-84
2023/03/08 04:38:15;;;;;;;;;;;;;;;;;;4979820;28;19910;-83
2023/03/08 04:41:00;;;;;;;;;;;;;;;;;;4980465;28;19965;-84
2023/03/08 04:43:26;;;;;;;;;;;;;;;;;;4981458;28;19910;-84
2023/03/08 04:45:51;;;;;;;;;;;;;;;;;;4981989;28;19920;-84
2023/03/08 04:48:16;;;;;;;;;;;;;;;;;;4981225;28;19910;-85
2023/03/08 04:50:42;;;;;;;;;;;;;;;;;;4995575;28;20333;-85
2023/03/08 04:53:07;;;;;;;;;;;;;;;;;;4981207;28;19961;-84
2023/03/08 04:55:33;;;;;;;;;;;;;;;;;;4980490;28;20300;-84
2023/03/08 04:57:58;;;;;;;;;;;;;;;;;;4983618;28;20013;-85
2023/03/08 05:00:23;;;;;;;;;;;;;;;;;;4984166;28;19978;-85
2023/03/08 05:02:48;;;;;;;;;;;;;;;;;;4982125;28;20373;-85
2023/03/08 05:05:13;;;;;;;;;;;;;;;;;;4982298;28;19910;-85
2023/03/08 05:07:38;;;;;;;;;;;;;;;;;;4983066;28;20329;-84
2023/03/08 05:10:04;;;;;;;;;;;;;;;;;;4983834;28;19909;-85
2023/03/08 05:12:29;;;;;;;;;;;;;;;;;;4982847;28;19910;-84
2023/03/08 05:14:54;;;;;;;;;;;;;;;;;;4983608;28;19973;-85
2023/03/08 05:17:20;;;;;;;;;;;;;;;;;;4981659;28;19969;-85
2023/03/08 05:19:49;;;;;;;;;;;;;;;;;;4980949;28;19920;-83
2023/03/08 05:22:14;;;;;;;;;;;;;;;;;;4983933;28;19933;-84
2023/03/08 05:24:40;;;;;;;;;;;;;;;;;;4984402;28;20341;-85
2023/03/08 05:27:05;;;;;;;;;;;;;;;;;;4983073;28;19997;-87
2023/03/08 05:29:31;;;;;;;;;;;;;;;;;;4981057;28;19914;-85
2023/03/08 05:31:57;;;;;;;;;;;;;;;;;;4982648;28;19910;-84
2023/03/08 05:34:22;;;;;;;;;;;;;;;;;;4981506;28;20404;-84
2023/03/08 05:36:48;;;;;;;;;;;;;;;;;;4979416;28;19910;-86
2023/03/08 05:39:13;;;;;;;;;;;;;;;;;;4978332;28;19973;-87
2023/03/08 05:41:38;;;;;;;;;;;;;;;;;;4977673;28;19988;-87
2023/03/08 05:44:03;;;;;;;;;;;;;;;;;;4978622;28;19969;-88
2023/03/08 05:46:28;;;;;;;;;;;;;;;;;;4978850;28;20267;-87
2023/03/08 05:48:54;;;;;;;;;;;;;;;;;;4980240;28;20327;-87
2023/03/08 05:51:19;;;;;;;;;;;;;;;;;;4981591;28;19917;-86
2023/03/08 05:53:44;;;;;;;;;;;;;;;;;;4983008;28;19917;-84
2023/03/08 05:56:11;;;;;;;;;;;;;;;;;;4982006;28;19921;-85
2023/03/08 05:58:36;;;;;;;;;;;;;;;;;;4982082;28;19921;-84
2023/03/08 06:01:30;;;;;;;;;;;;;;;;;;4981341;28;19918;-84
2023/03/08 06:03:56;;;;;;;;;;;;;;;;;;4974864;28;19910;-84
2023/03/08 06:06:22;;;;;;;;;;;;;;;;;;4978720;28;19965;-83
2023/03/08 06:08:48;;;;;;;;;;;;;;;;;;4977772;28;19914;-84
2023/03/08 06:11:13;;;;;;;;;;;;;;;;;;4977995;28;19934;-84
2023/03/08 06:13:38;;;;;;;;;;;;;;;;;;4979897;28;19953;-84
2023/03/08 06:16:04;;;;;;;;;;;;;;;;;;4979273;28;19910;-83
2023/03/08 06:18:29;;;;;;;;;;;;;;;;;;4978769;28;19914;-83
2023/03/08 06:20:56;;;;;;;;;;;;;;;;;;4979521;28;19910;-83
2023/03/08 06:23:22;;;;;;;;;;;;;;;;;;4979368;28;19910;-83
2023/03/08 06:25:47;;;;;;;;;;;;;;;;;;4980486;28;19916;-84
2023/03/08 06:28:12;;;;;;;;;;;;;;;;;;4981196;28;19914;-84
2023/03/08 06:30:37;;;;;;;;;;;;;;;;;;4980853;28;19910;-84
2023/03/08 06:33:02;;;;;;;;;;;;;;;;;;4979657;28;19957;-84
2023/03/08 06:35:27;;;;;;;;;;;;;;;;;;4981247;28;19933;-82
2023/03/08 06:37:53;;;;;;;;;;;;;;;;;;4980621;28;19910;-85
2023/03/08 06:40:19;;;;;;;;;;;;;;;;;;4981479;28;19921;-85
2023/03/08 06:42:44;;;;;;;;;;;;;;;;;;4978378;28;19910;-84
2023/03/08 06:45:10;;;;;;;;;;;;;;;;;;4978858;28;19910;-84
2023/03/08 06:47:35;;;;;;;;;;;;;;;;;;4978808;28;20359;-84
2023/03/08 06:50:00;;;;;;;;;;;;;;;;;;4979562;28;20373;-83
2023/03/08 06:52:25;;;;;;;;;;;;;;;;;;4980094;28;19932;-85
2023/03/08 06:54:50;;;;;;;;;;;;;;;;;;4994479;28;19946;-85
2023/03/08 06:57:15;;;;;;;;;;;;;;;;;;4980328;28;19916;-84
2023/03/08 06:59:41;;;;;;;;;;;;;;;;;;4981572;28;19914;-83
2023/03/08 07:02:06;;;;;;;;;;;;;;;;;;4980976;28;19984;-84
2023/03/08 07:04:31;;;;;;;;;;;;;;;;;;4981221;28;20014;-84
2023/03/08 07:06:58;;;;;;;;;;;;;;;;;;4981837;28;20385;-84
2023/03/08 07:09:23;;;;;;;;;;;;;;;;;;4981351;28;19920;-85
2023/03/08 07:11:48;;;;;;;;;;;;;;;;;;4982305;28;19996;-85
2023/03/08 07:14:13;;;;;;;;;;;;;;;;;;4982573;28;19910;-84
2023/03/08 07:16:38;;;;;;;;;;;;;;;;;;4982043;28;19917;-85
2023/03/08 07:19:04;;;;;;;;;;;;;;;;;;4980959;28;19968;-85
2023/03/08 07:21:29;;;;;;;;;;;;;;;;;;4979857;28;19910;-84
2023/03/08 07:23:54;;;;;;;;;;;;;;;;;;4995434;28;19917;-83
2023/03/08 07:26:19;;;;;;;;;;;;;;;;;;4980294;28;20258;-84
2023/03/08 07:28:47;;;;;;;;;;;;;;;;;;4978233;28;19917;-84
2023/03/08 07:31:12;;;;;;;;;;;;;;;;;;4978741;28;19921;-84
2023/03/08 07:33:37;;;;;;;;;;;;;;;;;;4978255;28;19910;-84
2023/03/08 07:36:03;;;;;;;;;;;;;;;;;;4981056;28;19910;-84
2023/03/08 07:38:28;;;;;;;;;;;;;;;;;;4980988;28;19921;-84
2023/03/08 07:40:54;;;;;;;;;;;;;;;;;;4980882;28;19910;-84
2023/03/08 07:43:20;;;;;;;;;;;;;;;;;;4983250;28;19910;-85
2023/03/08 07:45:45;;;;;;;;;;;;;;;;;;4985595;28;19917;-85
2023/03/08 07:48:10;;;;;;;;;;;;;;;;;;4985940;28;19910;-86
2023/03/08 07:50:35;;;;;;;;;;;;;;;;;;4980997;28;19914;-79
2023/03/08 07:53:01;;;;;;;;;;;;;;;;;;4979405;28;19917;-79
2023/03/08 07:55:26;;;;;;;;;;;;;;;;;;4978566;28;19996;-79
2023/03/08 07:57:51;;;;;;;;;;;;;;;;;;4979247;28;19981;-79
2023/03/08 08:00:17;;;;;;;;;;;;;;;;;;4980409;28;20386;-79
2023/03/08 08:02:42;;;;;;;;;;;;;;;;;;4978411;28;19968;-78
2023/03/08 08:05:07;;;;;;;;;;;;;;;;;;4978506;28;19921;-79
2023/03/08 08:07:32;;;;;;;;;;;;;;;;;;4977842;28;19910;-78
2023/03/08 08:09:57;;;;;;;;;;;;;;;;;;4977973;28;19917;-77
2023/03/08 08:12:23;;;;;;;;;;;;;;;;;;4976957;28;19952;-78
2023/03/08 08:14:52;;;;;;;;;;;;;;;;;;4978063;28;19910;-79
2023/03/08 08:17:18;;;;;;;;;;;;;;;;;;4976164;28;20004;-78
2023/03/08 08:19:43;;;;;;;;;;;;;;;;;;4981282;28;19921;-80
2023/03/08 08:22:08;;;;;;;;;;;;;;;;;;4979935;28;19910;-80
2023/03/08 08:24:33;;;;;;;;;;;;;;;;;;4982365;28;19910;-86
2023/03/08 08:26:59;;;;;;;;;;;;;;;;;;4999585;28;20259;-86
2023/03/08 08:29:24;;;;;;;;;;;;;;;;;;4984054;28;20369;-87
2023/03/08 08:31:51;;;;;;;;;;;;;;;;;;4983060;28;19910;-85
2023/03/08 08:34:16;;;;;;;;;;;;;;;;;;4999196;28;19950;-85
2023/03/08 08:36:42;;;;;;;;;;;;;;;;;;4983849;28;19960;-85
2023/03/08 08:39:07;;;;;;;;;;;;;;;;;;4999135;28;19976;-86
2023/03/08 08:41:32;;;;;;;;;;;;;;;;;;4983647;28;19910;-84
2023/03/08 08:44:00;;;;;;;;;;;;;;;;;;4984126;28;20344;-85
2023/03/08 08:46:26;;;;;;;;;;;;;;;;;;4983517;28;19914;-85
2023/03/08 08:48:52;;;;;;;;;;;;;;;;;;4985445;28;19910;-85
2023/03/08 08:51:17;;;;;;;;;;;;;;;;;;4984587;28;19916;-86
2023/03/08 08:53:43;;;;;;;;;;;;;;;;;;4984954;28;20353;-84
2023/03/08 08:56:12;;;;;;;;;;;;;;;;;;4985517;28;19945;-85
2023/03/08 08:58:38;;;;;;;;;;;;;;;;;;4985572;28;19914;-85
2023/03/08 09:01:03;;;;;;;;;;;;;;;;;;4985122;28;20437;-84
2023/03/08 09:03:28;;;;;;;;;;;;;;;;;;4985196;28;19960;-85
2023/03/08 09:05:56;;;;;;;;;;;;;;;;;;4983877;28;19910;-85
2023/03/08 09:08:21;;;;;;;;;;;;;;;;;;4982130;28;20352;-85
2023/03/08 09:10:46;;;;;;;;;;;;;;;;;;4983397;28;19964;-84
2023/03/08 09:13:11;;;;;;;;;;;;;;;;;;4982439;28;20001;-83
2023/03/08 09:15:37;;;;;;;;;;;;;;;;;;4984015;28;19909;-84
2023/03/08 09:18:02;;;;;;;;;;;;;;;;;;4983934;28;19914;-85
2023/03/08 09:20:27;;;;;;;;;;;;;;;;;;4984494;28;19968;-85
2023/03/08 09:22:52;;;;;;;;;;;;;;;;;;4984373;28;19916;-84
2023/03/08 09:25:19;;;;;;;;;;;;;;;;;;4984489;28;20370;-86
2023/03/08 09:27:44;;;;;;;;;;;;;;;;;;4984625;28;19917;-83
2023/03/08 09:30:11;;;;;;;;;;;;;;;;;;4985219;28;19910;-86
2023/03/08 09:32:36;;;;;;;;;;;;;;;;;;4984376;28;19969;-84
2023/03/08 09:35:03;;;;;;;;;;;;;;;;;;4984668;28;20338;-84
2023/03/08 09:37:29;;;;;;;;;;;;;;;;;;4982263;28;20404;-85
2023/03/08 09:39:54;;;;;;;;;;;;;;;;;;4995934;28;19914;-86
2023/03/08 09:42:26;;;;;;;;;;;;;;;;;;4980690;28;19910;-84
2023/03/08 09:45:14;;;;;;;;;;;;;;;;;;4981421;28;19910;-85
2023/03/08 09:47:39;;;;;;;;;;;;;;;;;;4996698;28;19957;-86
2023/03/08 09:50:10;;;;;;;;;;;;;;;;;;4983766;28;19914;-85
2023/03/08 09:52:42;;;;;;;;;;;;;;;;;;4999209;28;19917;-84
2023/03/08 09:55:29;;;;;;;;;;;;;;;;;;4982936;28;19917;-84
2023/03/08 09:57:55;;;;;;;;;;;;;;;;;;4982855;28;20377;-85
2023/03/08 10:00:28;;;;;;;;;;;;;;;;;;4982128;28;19921;-84
2023/03/08 10:03:01;;;;;;;;;;;;;;;;;;4982451;28;20392;-86
2023/03/08 10:05:30;;;;;;;;;;;;;;;;;;4998240;28;19910;-84
2023/03/08 10:08:11;;;;;;;;;;;;;;;;;;4982673;28;19914;-84
2023/03/08 10:10:42;;;;;;;;;;;;;;;;;;4983005;28;19932;-85
2023/03/08 10:13:20;;;;;;;;;;;;;;;;;;4983579;28;19917;-83
2023/03/08 10:15:48;;;;;;;;;;;;;;;;;;4983303;28;20112;-85
2023/03/08 10:18:16;;;;;;;;;;;;;;;;;;4997245;28;19914;-85
2023/03/08 10:20:42;;;;;;;;;;;;;;;;;;4994538;28;19910;-82
2023/03/08 10:23:14;;;;;;;;;;;;;;;;;;4977724;28;19960;-83
2023/03/08 10:25:40;;;;;;;;;;;;;;;;;;4977395;28;19910;-84
2023/03/08 10:28:10;;;;;;;;;;;;;;;;;;4978813;28;19910;-86
2023/03/08 10:30:39;;;;;;;;;;;;;;;;;;4981422;28;19938;-85
2023/03/08 10:33:09;;;;;;;;;;;;;;;;;;4979815;28;19933;-87
2023/03/08 10:35:51;;;;;;;;;;;;;;;;;;4979100;28;20277;-85
2023/03/08 10:38:16;;;;;;;;;;;;;;;;;;4980661;28;19910;-86
2023/03/08 10:40:41;;;;;;;;;;;;;;;;;;4981128;28;19914;-86
2023/03/08 10:43:13;;;;;;;;;;;;;;;;;;4981568;28;19910;-86
2023/03/08 10:45:38;;;;;;;;;;;;;;;;;;4981554;28;19942;-85
2023/03/08 10:48:04;;;;;;;;;;;;;;;;;;4981705;28;20396;-85
2023/03/08 10:50:29;;;;;;;;;;;;;;;;;;4981835;28;19981;-85
2023/03/08 10:52:55;;;;;;;;;;;;;;;;;;4982559;28;19914;-84
2023/03/08 10:55:25;;;;;;;;;;;;;;;;;;4982245;28;19910;-85
2023/03/08 10:57:58;;;;;;;;;;;;;;;;;;4997998;28;20293;-85
2023/03/08 11:00:31;;;;;;;;;;;;;;;;;;4982811;28;19942;-86
2023/03/08 11:03:10;;;;;;;;;;;;;;;;;;4981115;28;20356;-86
2023/03/08 11:05:35;;;;;;;;;;;;;;;;;;4981348;28;20312;-85
2023/03/08 11:08:01;;;;;;;;;;;;;;;;;;4980382;28;19914;-85
2023/03/08 11:10:27;;;;;;;;;;;;;;;;;;4982607;28;19910;-85
2023/03/08 11:13:00;;;;;;;;;;;;;;;;;;4982315;28;19914;-85
2023/03/08 11:15:26;;;;;;;;;;;;;;;;;;4981459;28;19910;-85
2023/03/08 11:17:54;;;;;;;;;;;;;;;;;;4985277;28;19910;-85
2023/03/08 11:20:19;;;;;;;;;;;;;;;;;;4986384;28;19914;-85
2023/03/08 11:22:57;;;;;;;;;;;;;;;;;;4986645;28;19910;-85
2023/03/08 11:25:28;;;;;;;;;;;;;;;;;;4987303;28;19933;-86
2023/03/08 11:28:03;;;;;;;;;;;;;;;;;;4987109;28;19972;-85
2023/03/08 11:30:48;;;;;;;;;;;;;;;;;;4987648;28;19925;-85
2023/03/08 11:33:19;;;;;;;;;;;;;;;;;;5003269;28;19921;-86
2023/03/08 11:35:57;;;;;;;;;;;;;;;;;;4986751;28;19934;-85
2023/03/08 11:38:24;;;;;;;;;;;;;;;;;;4985256;28;19913;-85
2023/03/08 11:41:08;;;;;;;;;;;;;;;;;;4987452;28;20424;-85
2023/03/08 11:43:42;;;;;;;;;;;;;;;;;;5001777;28;19937;-86
2023/03/08 11:46:26;;;;;;;;;;;;;;;;;;4986919;28;19910;-86
2023/03/08 11:49:04;;;;;;;;;;;;;;;;;;4986387;28;19924;-85
2023/03/08 11:51:41;;;;;;;;;;;;;;;;;;4986885;28;20362;-85
2023/03/08 11:54:07;;;;;;;;;;;;;;;;;;4987660;28;20489;-84
2023/03/08 11:56:38;;;;;;;;;;;;;;;;;;4987065;28;19914;-85
2023/03/08 11:59:15;;;;;;;;;;;;;;;;;;4986265;28;19921;-85
2023/03/08 12:01:46;;;;;;;;;;;;;;;;;;4987093;28;19957;-83
2023/03/08 12:04:14;;;;;;;;;;;;;;;;;;4987205;28;19914;-85
2023/03/08 12:06:42;;;;;;;;;;;;;;;;;;4987903;28;20440;-85
2023/03/08 12:09:13;;;;;;;;;;;;;;;;;;4987170;28;19914;-85
2023/03/08 12:11:58;;;;;;;;;;;;;;;;;;4987800;28;19917;-85
2023/03/08 12:14:30;;;;;;;;;;;;;;;;;;4986465;28;20049;-86
2023/03/08 12:17:01;;;;;;;;;;;;;;;;;;4987238;28;20008;-85
2023/03/08 12:19:26;;;;;;;;;;;;;;;;;;4986820;28;20385;-85
2023/03/08 12:21:57;;;;;;;;;;;;;;;;;;4986889;28;19921;-85
2023/03/08 12:24:27;;;;;;;;;;;;;;;;;;4986424;28;19914;-85
2023/03/08 12:26:56;;;;;;;;;;;;;;;;;;4985658;28;20008;-85
2023/03/08 12:29:27;;;;;;;;;;;;;;;;;;4986751;28;19968;-85
2023/03/08 12:31:53;;;;;;;;;;;;;;;;;;5002236;28;19914;-85
2023/03/08 12:34:24;;;;;;;;;;;;;;;;;;4986064;28;19965;-86
2023/03/08 12:36:50;;;;;;;;;;;;;;;;;;4987705;28;19910;-85
2023/03/08 12:39:34;;;;;;;;;;;;;;;;;;4985900;28;19914;-85
2023/03/08 12:42:01;;;;;;;;;;;;;;;;;;4984943;28;19969;-84
2023/03/08 12:44:28;;;;;;;;;;;;;;;;;;4985177;28;20293;-85
2023/03/08 12:46:58;;;;;;;;;;;;;;;;;;4986412;28;19978;-85
2023/03/08 12:49:32;;;;;;;;;;;;;;;;;;4986976;28;19921;-85
2023/03/08 12:52:05;;;;;;;;;;;;;;;;;;4985424;28;19973;-85
2023/03/08 12:54:32;;;;;;;;;;;;;;;;;;4986309;28;19957;-85
2023/03/08 12:56:58;;;;;;;;;;;;;;;;;;4984983;28;19910;-85
2023/03/08 12:59:37;;;;;;;;;;;;;;;;;;4986468;28;19918;-84
2023/03/08 13:02:20;;;;;;;;;;;;;;;;;;4985736;28;19910;-85
2023/03/08 13:04:45;;;;;;;;;;;;;;;;;;4986622;28;19921;-85
2023/03/08 13:07:13;;;;;;;;;;;;;;;;;;4986215;28;19910;-85
2023/03/08 13:09:43;;;;;;;;;;;;;;;;;;5001345;28;20008;-85
2023/03/08 13:12:14;;;;;;;;;;;;;;;;;;4986106;28;19917;-85
2023/03/08 13:14:39;;;;;;;;;;;;;;;;;;4986487;28;19918;-85
2023/03/08 13:17:23;;;;;;;;;;;;;;;;;;4986827;28;20385;-85
2023/03/08 13:19:49;;;;;;;;;;;;;;;;;;4986601;28;20336;-85
2023/03/08 13:22:20;;;;;;;;;;;;;;;;;;4986141;28;19914;-86
2023/03/08 13:24:54;;;;;;;;;;;;;;;;;;5001731;28;19913;-86
2023/03/08 13:27:35;;;;;;;;;;;;;;;;;;4985322;28;19969;-85
2023/03/08 13:30:18;;;;;;;;;;;;;;;;;;4984359;28;19910;-85
2023/03/08 13:32:43;;;;;;;;;;;;;;;;;;4985619;28;19914;-85
2023/03/08 13:35:14;;;;;;;;;;;;;;;;;;4982009;28;20005;-85
2023/03/08 13:37:39;;;;;;;;;;;;;;;;;;4984186;28;20366;-86
2023/03/08 13:40:13;;;;;;;;;;;;;;;;;;4981465;28;19914;-85
2023/03/08 13:42:50;;;;;;;;;;;;;;;;;;4981471;28;20012;-86
2023/03/08 13:45:16;;;;;;;;;;;;;;;;;;4982498;28;19917;-86
2023/03/08 13:47:42;;;;;;;;;;;;;;;;;;4983126;28;19909;-86
2023/03/08 13:50:15;;;;;;;;;;;;;;;;;;4983306;28;19916;-86
2023/03/08 13:52:40;;;;;;;;;;;;;;;;;;4985039;28;19936;-85
2023/03/08 13:55:07;;;;;;;;;;;;;;;;;;4983872;28;19914;-86
2023/03/08 13:57:35;;;;;;;;;;;;;;;;;;4982703;28;19968;-85
2023/03/08 14:00:15;;;;;;;;;;;;;;;;;;4998204;28;20028;-86
2023/03/08 14:02:44;;;;;;;;;;;;;;;;;;4983799;28;20378;-85
2023/03/08 14:05:14;;;;;;;;;;;;;;;;;;4982454;28;19910;-86
2023/03/08 14:07:39;;;;;;;;;;;;;;;;;;4981456;28;20389;-86
2023/03/08 14:10:11;;;;;;;;;;;;;;;;;;4982952;28;19937;-86
2023/03/08 14:12:36;;;;;;;;;;;;;;;;;;4983288;28;19960;-86
2023/03/08 14:15:02;;;;;;;;;;;;;;;;;;4984130;28;19910;-86
2023/03/08 14:17:29;;;;;;;;;;;;;;;;;;4982314;28;19921;-86
2023/03/08 14:19:56;;;;;;;;;;;;;;;;;;4983231;28;19997;-85
2023/03/08 14:22:22;;;;;;;;;;;;;;;;;;4983063;28;19968;-85
2023/03/08 14:24:50;;;;;;;;;;;;;;;;;;4984680;28;19917;-86
2023/03/08 14:27:15;;;;;;;;;;;;;;;;;;4982210;28;19909;-86
2023/03/08 14:29:41;;;;;;;;;;;;;;;;;;4981970;28;19982;-86
2023/03/08 14:32:09;;;;;;;;;;;;;;;;;;4982102;28;19990;-85
2023/03/08 14:34:35;;;;;;;;;;;;;;;;;;4984290;28;19916;-86
2023/03/08 14:37:00;;;;;;;;;;;;;;;;;;4999426;28;20343;-86
2023/03/08 14:39:26;;;;;;;;;;;;;;;;;;4983372;28;19914;-84
2023/03/08 14:41:52;;;;;;;;;;;;;;;;;;4983273;28;19910;-84
2023/03/08 14:44:19;;;;;;;;;;;;;;;;;;4985051;28;19918;-86
2023/03/08 14:46:45;;;;;;;;;;;;;;;;;;4985191;28;19910;-85
2023/03/08 14:49:19;;;;;;;;;;;;;;;;;;4983713;28;19921;-85
2023/03/08 14:51:44;;;;;;;;;;;;;;;;;;4984335;28;20057;-85
2023/03/08 14:54:18;;;;;;;;;;;;;;;;;;4989143;28;19910;-85
2023/03/08 14:56:45;;;;;;;;;;;;;;;;;;5003853;28;20280;-85
2023/03/08 14:59:11;;;;;;;;;;;;;;;;;;4988630;28;19964;-85
2023/03/08 15:01:36;;;;;;;;;;;;;;;;;;4990057;28;19910;-85
2023/03/08 15:04:02;;;;;;;;;;;;;;;;;;4988935;28;19960;-85
2023/03/08 15:06:29;;;;;;;;;;;;;;;;;;4988817;28;19917;-85
2023/03/08 15:08:54;;;;;;;;;;;;;;;;;;4986368;28;19962;-84
2023/03/08 15:11:20;;;;;;;;;;;;;;;;;;4986793;28;19910;-85
2023/03/08 15:13:45;;;;;;;;;;;;;;;;;;4985856;28;19909;-85
2023/03/08 15:16:10;;;;;;;;;;;;;;;;;;4987694;28;19948;-85
2023/03/08 15:18:36;;;;;;;;;;;;;;;;;;4987727;28;20004;-86
2023/03/08 15:21:01;;;;;;;;;;;;;;;;;;4988980;28;19910;-85
2023/03/08 15:23:28;;;;;;;;;;;;;;;;;;4987932;28;19917;-85
2023/03/08 15:25:54;;;;;;;;;;;;;;;;;;4986821;28;19909;-84
2023/03/08 15:28:20;;;;;;;;;;;;;;;;;;4989222;28;19917;-85
2023/03/08 15:30:45;;;;;;;;;;;;;;;;;;4987906;28;19910;-85
2023/03/08 15:33:10;;;;;;;;;;;;;;;;;;4986898;28;20329;-85
2023/03/08 15:35:36;;;;;;;;;;;;;;;;;;4986964;28;19945;-84
2023/03/08 15:38:02;;;;;;;;;;;;;;;;;;4987091;28;19910;-84
2023/03/08 15:40:28;;;;;;;;;;;;;;;;;;4987452;28;19973;-84
2023/03/08 15:42:53;;;;;;;;;;;;;;;;;;4985870;28;19914;-85
2023/03/08 15:45:18;;;;;;;;;;;;;;;;;;4987394;28;19937;-84
2023/03/08 15:47:53;;;;;;;;;;;;;;;;;;4987824;28;19910;-85
2023/03/08 15:50:18;;;;;;;;;;;;;;;;;;4988466;28;20380;-85
2023/03/08 15:52:44;;;;;;;;;;;;;;;;;;4987965;28;19993;-86
2023/03/08 15:55:10;;;;;;;;;;;;;;;;;;4987918;28;19934;-85
2023/03/08 15:57:36;;;;;;;;;;;;;;;;;;4988664;28;19910;-84
2023/03/08 16:00:05;;;;;;;;;;;;;;;;;;4988526;28;19914;-85
2023/03/08 16:02:30;;;;;;;;;;;;;;;;;;4988912;28;19910;-85
2023/03/08 16:04:56;;;;;;;;;;;;;;;;;;4988039;28;19917;-85
2023/03/08 16:07:22;;;;;;;;;;;;;;;;;;4988099;28;19917;-84
2023/03/08 16:09:47;;;;;;;;;;;;;;;;;;4988263;28;19914;-85
2023/03/08 16:12:12;;;;;;;;;;;;;;;;;;4988819;28;19914;-86
2023/03/08 16:14:38;;;;;;;;;;;;;;;;;;4988735;28;20369;-86
2023/03/08 16:17:03;;;;;;;;;;;;;;;;;;4987033;28;19917;-85
2023/03/08 16:19:33;;;;;;;;;;;;;;;;;;4990438;28;19914;-85
2023/03/08 16:21:58;;;;;;;;;;;;;;;;;;5004816;28;19973;-85
2023/03/08 16:24:23;;;;;;;;;;;;;;;;;;4988283;28;19910;-84
2023/03/08 16:26:49;;;;;;;;;;;;;;;;;;4988503;28;20056;-85
2023/03/08 16:29:14;;;;;;;;;;;;;;;;;;4987529;28;19966;-85
2023/03/08 16:31:39;;;;;;;;;;;;;;;;;;5004353;28;19961;-85
2023/03/08 16:34:04;;;;;;;;;;;;;;;;;;4990762;28;19926;-84
2023/03/08 16:36:30;;;;;;;;;;;;;;;;;;4987972;28;19934;-84
2023/03/08 16:38:55;;;;;;;;;;;;;;;;;;4986703;28;20004;-84
2023/03/08 16:41:23;;;;;;;;;;;;;;;;;;4988197;28;19934;-85
2023/03/08 16:43:48;;;;;;;;;;;;;;;;;;4986005;28;19917;-85
2023/03/08 16:46:20;;;;;;;;;;;;;;;;;;4985449;28;19910;-86